OIZI  Iran Shahr Airport

Add Bookmark

Iran

Status
Operational
Latitude Longitude
27° 14' 9" N 60° 43' 12" E
27.236099 60.720001
Local (DST + 5) UTC (GMT + 4)
Jul 29, 2014 11:09 Jul 29, 2014 06:39
Sunrise-Sunset Local UTC
Begin Civil Twilight 05:22 00:52
Sunrise 05:48 01:18
Sunset 07:18 14:48
End Civil Twilight 07:44 15:14

Current Weather

METAR Observed MVFR
OIZI 290600Z 00000KT 6000 NSC 39/14 Q1000 Tue, Jul 29, 2014 @ 06:00 UTC
(39 Minutes ago)
Marginal Visual Flight Rules

Decoded METAR

Wind Visibility Clouds Conditions
Calm 6000 meters
  • Clear skies
  • No significant weather
Temperatures Readings Precipitation
Current Temp 39°C (102°F)
Dewpoint 14°C (57°F)
Humidity 23%
Altimeter 29.53"Hg
Sea Level Pressure 1000mb
Field Elevation 1938.98'
None Recorded

24 Hour Weather History

Loading
-

24 Hour Weather Graphs

Loading
-

CheckWX.com is intended as a tool to help pilots better visualize weather data. It is not intended as a substitute for an official weather briefing obtained from a Flight Service Station. CheckWX.com does not meet the FAA requirements for an official pre-flight weather briefing. Therefore, it's important that pilots still call and obtain an official FSS pre-flight weather briefing.